Melrose, Pennsylvania
Current Conditions -  °F | °C
As of 12:54 PM on Thursday 27 Nov 2014 (Local Time) from KPNE Reporting Station
Overcast Overcast  
Wind Chill: 34°   Ceiling: 2000
Heat Index: 40°   Visibility: 10mi
Dew Point: 29°   Wind: 8mph
Humidity: 65%   Direction: 310°NW
Pressure: 30.02"   Gusts: NA
Location:  40.0732°N, 75.1248°W
Report Text: KPNE 271754Z AUTO 31007KT 10SM OVC020 04/M02 A3002 RMK AO2 SLP167 T00441017 10050 20022 58009 TSNO
Loading
Personal Weather Stations






























Interactive Weather Map New forecast layout! Learn more

10-Day Weather Forecast

Advertisements
Track Severe Weather on mobile